sensor_id;sensor_type;location;lat;lon;timestamp;pressure;altitude;pressure_sealevel;temperature;humidity
45525;BME280;31437;58.350;13.828;2023-03-01T00:00:10;102128.88;;;1.63;100.00
45525;BME280;31437;58.350;13.828;2023-03-01T00:02:37;102132.34;;;1.64;100.00
45525;BME280;31437;58.350;13.828;2023-03-01T00:05:03;102140.91;;;1.61;100.00
45525;BME280;31437;58.350;13.828;2023-03-01T00:07:28;102118.28;;;1.46;100.00
45525;BME280;31437;58.350;13.828;2023-03-01T00:09:53;102150.44;;;1.62;100.00
45525;BME280;31437;58.350;13.828;2023-03-01T00:12:19;102141.00;;;1.67;100.00
45525;BME280;31437;58.350;13.828;2023-03-01T00:14:44;102149.63;;;1.66;100.00
45525;BME280;31437;58.350;13.828;2023-03-01T00:17:10;102153.94;;;1.67;100.00
45525;BME280;31437;58.350;13.828;2023-03-01T00:19:35;102152.28;;;1.71;100.00
45525;BME280;31437;58.350;13.828;2023-03-01T00:22:00;102158.28;;;1.70;100.00
45525;BME280;31437;58.350;13.828;2023-03-01T00:24:25;102162.59;;;1.68;100.00
45525;BME280;31437;58.350;13.828;2023-03-01T00:26:54;102164.28;;;1.66;100.00
45525;BME280;31437;58.350;13.828;2023-03-01T00:29:21;102171.09;;;1.61;100.00
45525;BME280;31437;58.350;13.828;2023-03-01T00:31:46;102168.44;;;1.54;100.00
45525;BME280;31437;58.350;13.828;2023-03-01T00:34:12;102165.75;;;1.48;100.00
45525;BME280;31437;58.350;13.828;2023-03-01T00:36:37;102175.22;;;1.48;100.00
45525;BME280;31437;58.350;13.828;2023-03-01T00:39:03;102179.50;;;1.46;100.00
45525;BME280;31437;58.350;13.828;2023-03-01T00:41:29;102178.59;;;1.42;100.00
45525;BME280;31437;58.350;13.828;2023-03-01T00:43:54;102179.41;;;1.41;100.00
45525;BME280;31437;58.350;13.828;2023-03-01T00:46:22;102184.63;;;1.43;100.00
45525;BME280;31437;58.350;13.828;2023-03-01T00:48:47;102186.34;;;1.42;100.00
45525;BME280;31437;58.350;13.828;2023-03-01T00:51:14;102181.19;;;1.42;100.00
45525;BME280;31437;58.350;13.828;2023-03-01T00:53:40;102194.09;;;1.42;100.00
45525;BME280;31437;58.350;13.828;2023-03-01T00:56:06;102183.72;;;1.39;100.00
45525;BME280;31437;58.350;13.828;2023-03-01T00:58:32;102190.56;;;1.37;100.00
45525;BME280;31437;58.350;13.828;2023-03-01T01:00:57;102194.03;;;1.36;100.00
45525;BME280;31437;58.350;13.828;2023-03-01T01:03:23;102189.63;;;1.30;100.00
45525;BME280;31437;58.350;13.828;2023-03-01T01:05:50;102187.84;;;1.29;100.00
45525;BME280;31437;58.350;13.828;2023-03-01T01:08:15;102190.34;;;1.23;100.00
45525;BME280;31437;58.350;13.828;2023-03-01T01:10:42;102192.03;;;1.20;100.00
45525;BME280;31437;58.350;13.828;2023-03-01T01:13:08;102197.19;;;1.20;100.00
45525;BME280;31437;58.350;13.828;2023-03-01T01:15:33;102197.19;;;1.18;100.00
45525;BME280;31437;58.350;13.828;2023-03-01T01:17:59;102192.81;;;1.16;100.00
45525;BME280;31437;58.350;13.828;2023-03-01T01:20:24;102195.41;;;1.16;100.00
45525;BME280;31437;58.350;13.828;2023-03-01T01:22:50;102193.69;;;1.16;100.00
45525;BME280;31437;58.350;13.828;2023-03-01T01:25:16;102192.84;;;1.17;100.00
45525;BME280;31437;58.350;13.828;2023-03-01T01:27:41;102198.88;;;1.16;100.00
45525;BME280;31437;58.350;13.828;2023-03-01T01:30:07;102200.50;;;1.11;100.00
45525;BME280;31437;58.350;13.828;2023-03-01T01:32:32;102197.84;;;1.06;100.00
45525;BME280;31437;58.350;13.828;2023-03-01T01:34:57;102202.97;;;1.03;100.00
45525;BME280;31437;58.350;13.828;2023-03-01T01:37:23;102199.53;;;1.06;100.00
45525;BME280;31437;58.350;13.828;2023-03-01T01:39:56;102201.28;;;1.07;100.00
45525;BME280;31437;58.350;13.828;2023-03-01T01:42:21;102192.63;;;1.05;100.00
45525;BME280;31437;58.350;13.828;2023-03-01T01:44:47;102202.06;;;1.01;100.00
45525;BME280;31437;58.350;13.828;2023-03-01T01:47:14;102201.16;;;0.98;100.00
45525;BME280;31437;58.350;13.828;2023-03-01T01:49:42;102201.09;;;0.95;100.00
45525;BME280;31437;58.350;13.828;2023-03-01T01:52:11;102197.53;;;0.89;100.00
45525;BME280;31437;58.350;13.828;2023-03-01T01:55:24;102199.22;;;0.86;100.00
45525;BME280;31437;58.350;13.828;2023-03-01T01:57:25;102201.69;;;0.80;100.00
45525;BME280;31437;58.350;13.828;2023-03-01T01:59:53;102202.47;;;0.76;100.00
45525;BME280;31437;58.350;13.828;2023-03-01T02:02:19;102193.75;;;0.71;100.00
45525;BME280;31437;58.350;13.828;2023-03-01T02:04:45;102170.16;;;0.52;100.00
45525;BME280;31437;58.350;13.828;2023-03-01T02:07:15;102202.22;;;0.62;100.00
45525;BME280;31437;58.350;13.828;2023-03-01T02:09:48;102201.31;;;0.60;100.00
45525;BME280;31437;58.350;13.828;2023-03-01T02:12:14;102204.66;;;0.56;100.00
45525;BME280;31437;58.350;13.828;2023-03-01T02:14:40;102201.16;;;0.51;100.00
45525;BME280;31437;58.350;13.828;2023-03-01T02:17:06;102204.47;;;0.45;100.00
45525;BME280;31437;58.350;13.828;2023-03-01T02:19:51;102204.34;;;0.39;100.00
45525;BME280;31437;58.350;13.828;2023-03-01T02:22:25;102201.66;;;0.34;100.00
45525;BME280;31437;58.350;13.828;2023-03-01T02:27:38;102205.72;;;0.21;100.00
45525;BME280;31437;58.350;13.828;2023-03-01T02:30:05;102212.50;;;0.16;100.00
45525;BME280;31437;58.350;13.828;2023-03-01T02:32:31;102217.53;;;0.10;100.00
45525;BME280;31437;58.350;13.828;2023-03-01T02:34:57;102222.75;;;0.13;100.00
45525;BME280;31437;58.350;13.828;2023-03-01T02:37:22;102216.78;;;0.16;100.00
45525;BME280;31437;58.350;13.828;2023-03-01T02:39:56;102220.25;;;0.16;100.00
45525;BME280;31437;58.350;13.828;2023-03-01T02:42:26;102219.38;;;0.16;100.00
45525;BME280;31437;58.350;13.828;2023-03-01T02:44:51;102228.03;;;0.19;100.00
45525;BME280;31437;58.350;13.828;2023-03-01T02:47:18;102227.25;;;0.23;100.00
45525;BME280;31437;58.350;13.828;2023-03-01T02:49:44;102232.53;;;0.28;100.00
45525;BME280;31437;58.350;13.828;2023-03-01T02:54:46;102237.75;;;0.30;100.00
45525;BME280;31437;58.350;13.828;2023-03-01T02:57:13;102233.38;;;0.27;100.00
45525;BME280;31437;58.350;13.828;2023-03-01T02:59:39;102235.09;;;0.28;100.00
45525;BME280;31437;58.350;13.828;2023-03-01T03:02:05;102239.47;;;0.31;100.00
45525;BME280;31437;58.350;13.828;2023-03-01T03:04:31;102239.47;;;0.31;100.00
45525;BME280;31437;58.350;13.828;2023-03-01T03:06:57;102243.72;;;0.29;100.00
45525;BME280;31437;58.350;13.828;2023-03-01T03:09:23;102245.31;;;0.23;100.00
45525;BME280;31437;58.350;13.828;2023-03-01T03:11:48;102236.66;;;0.20;100.00
45525;BME280;31437;58.350;13.828;2023-03-01T03:14:14;102249.59;;;0.21;100.00
45525;BME280;31437;58.350;13.828;2023-03-01T03:16:41;102258.22;;;0.22;100.00
45525;BME280;31437;58.350;13.828;2023-03-01T03:19:06;102263.38;;;0.22;100.00
45525;BME280;31437;58.350;13.828;2023-03-01T03:21:32;102259.94;;;0.21;100.00
45525;BME280;31437;58.350;13.828;2023-03-01T03:23:58;102265.13;;;0.23;100.00
45525;BME280;31437;58.350;13.828;2023-03-01T03:26:23;102263.38;;;0.22;100.00
45525;BME280;31437;58.350;13.828;2023-03-01T03:28:48;102264.25;;;0.22;100.00
45525;BME280;31437;58.350;13.828;2023-03-01T03:31:14;102259.09;;;0.22;100.00
45525;BME280;31437;58.350;13.828;2023-03-01T03:33:39;102244.41;;;0.20;100.00
45525;BME280;31437;58.350;13.828;2023-03-01T03:36:04;102246.97;;;0.18;100.00
45525;BME280;31437;58.350;13.828;2023-03-01T03:38:30;102246.84;;;0.14;100.00
45525;BME280;31437;58.350;13.828;2023-03-01T03:41:05;102243.34;;;0.12;100.00
45525;BME280;31437;58.350;13.828;2023-03-01T03:43:32;102242.41;;;0.07;100.00
45525;BME280;31437;58.350;13.828;2023-03-01T03:45:58;102238.84;;;0.00;100.00
45525;BME280;31437;58.350;13.828;2023-03-01T03:48:24;102240.25;;;-0.13;100.00
45525;BME280;31437;58.350;13.828;2023-03-01T03:50:51;102237.47;;;-0.22;100.00
45525;BME280;31437;58.350;13.828;2023-03-01T03:53:16;102234.94;;;-0.19;100.00
45525;BME280;31437;58.350;13.828;2023-03-01T03:55:42;102235.81;;;-0.18;100.00
45525;BME280;31437;58.350;13.828;2023-03-01T03:58:09;102223.72;;;-0.21;100.00
45525;BME280;31437;58.350;13.828;2023-03-01T04:00:36;102232.44;;;-0.17;100.00
45525;BME280;31437;58.350;13.828;2023-03-01T04:03:02;102235.81;;;-0.18;100.00
45525;BME280;31437;58.350;13.828;2023-03-01T04:05:27;102234.94;;;-0.19;100.00
45525;BME280;31437;58.350;13.828;2023-03-01T04:07:53;102234.94;;;-0.19;100.00
45525;BME280;31437;58.350;13.828;2023-03-01T04:10:26;102241.81;;;-0.19;100.00
45525;BME280;31437;58.350;13.828;2023-03-01T04:12:51;102241.75;;;-0.22;100.00
45525;BME280;31437;58.350;13.828;2023-03-01T04:15:17;102238.31;;;-0.23;100.00
45525;BME280;31437;58.350;13.828;2023-03-01T04:17:43;102237.44;;;-0.24;100.00
45525;BME280;31437;58.350;13.828;2023-03-01T04:20:10;102238.31;;;-0.23;100.00
45525;BME280;31437;58.350;13.828;2023-03-01T04:22:37;102231.44;;;-0.22;100.00
45525;BME280;31437;58.350;13.828;2023-03-01T04:25:02;102236.53;;;-0.26;100.00
45525;BME280;31437;58.350;13.828;2023-03-01T04:27:27;102241.63;;;-0.29;100.00
45525;BME280;31437;58.350;13.828;2023-03-01T04:29:52;102236.47;;;-0.29;100.00
45525;BME280;31437;58.350;13.828;2023-03-01T04:32:18;102241.47;;;-0.35;100.00
45525;BME280;31437;58.350;13.828;2023-03-01T04:34:43;102240.44;;;-0.41;100.00
45525;BME280;31437;58.350;13.828;2023-03-01T04:37:08;102247.22;;;-0.47;100.00
45525;BME280;31437;58.350;13.828;2023-03-01T04:39:34;102249.66;;;-0.51;100.00
45525;BME280;31437;58.350;13.828;2023-03-01T04:42:11;102246.25;;;-0.50;100.00
45525;BME280;31437;58.350;13.828;2023-03-01T04:44:36;102248.69;;;-0.56;100.00
45525;BME280;31437;58.350;13.828;2023-03-01T04:47:01;102249.56;;;-0.56;100.00
45525;BME280;31437;58.350;13.828;2023-03-01T04:49:27;102249.53;;;-0.57;100.00
45525;BME280;31437;58.350;13.828;2023-03-01T04:51:52;102246.00;;;-0.61;100.00
45525;BME280;31437;58.350;13.828;2023-03-01T04:54:17;102239.94;;;-0.63;100.00
45525;BME280;31437;58.350;13.828;2023-03-01T04:56:42;102240.78;;;-0.64;100.00
45525;BME280;31437;58.350;13.828;2023-03-01T04:59:08;102243.28;;;-0.67;100.00
45525;BME280;31437;58.350;13.828;2023-03-01T05:01:35;102239.84;;;-0.67;100.00
45525;BME280;31437;58.350;13.828;2023-03-01T05:04:00;102238.06;;;-0.70;100.00
45525;BME280;31437;58.350;13.828;2023-03-01T05:06:28;102240.56;;;-0.72;100.00
45525;BME280;31437;58.350;13.828;2023-03-01T05:08:53;102235.47;;;-0.70;100.00
45525;BME280;31437;58.350;13.828;2023-03-01T05:11:18;102243.94;;;-0.74;100.00
45525;BME280;31437;58.350;13.828;2023-03-01T05:13:44;102245.72;;;-0.73;100.00
45525;BME280;31437;58.350;13.828;2023-03-01T05:16:09;102236.34;;;-0.70;100.00
45525;BME280;31437;58.350;13.828;2023-03-01T05:18:36;102238.13;;;-0.67;100.00
45525;BME280;31437;58.350;13.828;2023-03-01T05:21:05;102244.09;;;-0.68;100.00
45525;BME280;31437;58.350;13.828;2023-03-01T05:23:32;102254.22;;;-0.76;100.00
45525;BME280;31437;58.350;13.828;2023-03-01T05:25:58;102250.53;;;-0.85;100.00
45525;BME280;31437;58.350;13.828;2023-03-01T05:28:24;102248.84;;;-0.85;100.00
45525;BME280;31437;58.350;13.828;2023-03-01T05:30:50;102246.44;;;-0.79;100.00
45525;BME280;31437;58.350;13.828;2023-03-01T05:33:16;102255.13;;;-0.74;100.00
45525;BME280;31437;58.350;13.828;2023-03-01T05:35:42;102255.09;;;-0.75;100.00
45525;BME280;31437;58.350;13.828;2023-03-01T05:38:09;102266.34;;;-0.73;100.00
45525;BME280;31437;58.350;13.828;2023-03-01T05:40:38;102267.13;;;-0.76;100.00
45525;BME280;31437;58.350;13.828;2023-03-01T05:43:03;102268.00;;;-0.75;100.00
45525;BME280;31437;58.350;13.828;2023-03-01T05:45:30;102270.50;;;-0.77;100.00
45525;BME280;31437;58.350;13.828;2023-03-01T05:47:57;102273.94;;;-0.78;100.00
45525;BME280;31437;58.350;13.828;2023-03-01T05:50:24;102273.00;;;-0.80;100.00
45525;BME280;31437;58.350;13.828;2023-03-01T05:52:51;102276.28;;;-0.85;100.00
45525;BME280;31437;58.350;13.828;2023-03-01T05:55:17;102244.81;;;-1.08;100.00
45525;BME280;31437;58.350;13.828;2023-03-01T05:57:43;102275.78;;;-1.05;100.00
45525;BME280;31437;58.350;13.828;2023-03-01T06:00:09;102274.56;;;-1.18;100.00
45525;BME280;31437;58.350;13.828;2023-03-01T06:02:34;102277.78;;;-1.27;100.00
45525;BME280;31437;58.350;13.828;2023-03-01T06:04:59;102263.84;;;-1.35;100.00
45525;BME280;31437;58.350;13.828;2023-03-01T06:07:25;102273.22;;;-1.37;100.00
45525;BME280;31437;58.350;13.828;2023-03-01T06:09:50;102266.19;;;-1.43;100.00
45525;BME280;31437;58.350;13.828;2023-03-01T06:12:16;102278.97;;;-1.46;100.00
45525;BME280;31437;58.350;13.828;2023-03-01T06:14:42;102275.28;;;-1.54;100.00
45525;BME280;31437;58.350;13.828;2023-03-01T06:17:07;102289.69;;;-1.61;100.00
45525;BME280;31437;58.350;13.828;2023-03-01T06:19:32;102291.59;;;-1.55;100.00
45525;BME280;31437;58.350;13.828;2023-03-01T06:21:59;102290.03;;;-1.50;100.00
45525;BME280;31437;58.350;13.828;2023-03-01T06:24:24;102297.25;;;-1.37;100.00
45525;BME280;31437;58.350;13.828;2023-03-01T06:26:50;102301.88;;;-1.25;100.00
45525;BME280;31437;58.350;13.828;2023-03-01T06:29:15;102305.63;;;-1.13;100.00
45525;BME280;31437;58.350;13.828;2023-03-01T06:31:40;102306.88;;;-0.99;100.00
45525;BME280;31437;58.350;13.828;2023-03-01T06:34:06;102312.13;;;-0.63;100.00
45525;BME280;31437;58.350;13.828;2023-03-01T06:36:31;102323.22;;;0.06;100.00
45525;BME280;31437;58.350;13.828;2023-03-01T06:38:56;102324.94;;;0.43;100.00
45525;BME280;31437;58.350;13.828;2023-03-01T06:41:21;102325.38;;;0.64;100.00
45525;BME280;31437;58.350;13.828;2023-03-01T06:43:47;102326.41;;;0.71;100.00
45525;BME280;31437;58.350;13.828;2023-03-01T06:46:12;102327.56;;;0.85;100.00
45525;BME280;31437;58.350;13.828;2023-03-01T06:48:37;102331.06;;;0.89;100.00
45525;BME280;31437;58.350;13.828;2023-03-01T06:51:03;102334.84;;;1.08;100.00
45525;BME280;31437;58.350;13.828;2023-03-01T06:53:28;102335.41;;;1.37;100.00
45525;BME280;31437;58.350;13.828;2023-03-01T06:55:54;102344.47;;;1.62;100.00
45525;BME280;31437;58.350;13.828;2023-03-01T06:58:20;102347.47;;;1.88;100.00
45525;BME280;31437;58.350;13.828;2023-03-01T07:00:45;102344.41;;;2.14;100.00
45525;BME280;31437;58.350;13.828;2023-03-01T07:03:10;102345.69;;;2.43;100.00
45525;BME280;31437;58.350;13.828;2023-03-01T07:05:35;102345.25;;;2.75;100.00
45525;BME280;31437;58.350;13.828;2023-03-01T07:08:01;102339.63;;;3.11;100.00
45525;BME280;31437;58.350;13.828;2023-03-01T07:10:26;102329.75;;;3.62;100.00
45525;BME280;31437;58.350;13.828;2023-03-01T07:12:55;102305.91;;;4.14;100.00
45525;BME280;31437;58.350;13.828;2023-03-01T07:15:20;102286.97;;;4.38;100.00
45525;BME280;31437;58.350;13.828;2023-03-01T07:17:45;102258.56;;;4.84;100.00
45525;BME280;31437;58.350;13.828;2023-03-01T07:20:12;102229.13;;;5.14;100.00
45525;BME280;31437;58.350;13.828;2023-03-01T07:22:39;102213.53;;;5.44;100.00
45525;BME280;31437;58.350;13.828;2023-03-01T07:25:04;102182.22;;;5.72;100.00
45525;BME280;31437;58.350;13.828;2023-03-01T07:27:30;102145.72;;;5.98;100.00
45525;BME280;31437;58.350;13.828;2023-03-01T07:29:55;102011.88;;;6.13;100.00
45525;BME280;31437;58.350;13.828;2023-03-01T07:32:20;101831.97;;;6.27;100.00
45525;BME280;31437;58.350;13.828;2023-03-01T07:34:46;101768.22;;;6.52;100.00
45525;BME280;31437;58.350;13.828;2023-03-01T07:37:11;101714.97;;;6.72;100.00
45525;BME280;31437;58.350;13.828;2023-03-01T07:39:36;101667.59;;;6.99;100.00
45525;BME280;31437;58.350;13.828;2023-03-01T07:42:02;101619.72;;;7.02;100.00
45525;BME280;31437;58.350;13.828;2023-03-01T07:44:27;101589.09;;;7.12;100.00
45525;BME280;31437;58.350;13.828;2023-03-01T07:46:53;101550.31;;;7.40;100.00
45525;BME280;31437;58.350;13.828;2023-03-01T07:49:21;101515.25;;;7.53;100.00
45525;BME280;31437;58.350;13.828;2023-03-01T07:51:46;101485.50;;;7.59;100.00
45525;BME280;31437;58.350;13.828;2023-03-01T07:54:11;101444.06;;;7.43;100.00
45525;BME280;31437;58.350;13.828;2023-03-01T07:56:37;101443.84;;;7.54;100.00
45525;BME280;31437;58.350;13.828;2023-03-01T07:59:02;101430.09;;;7.85;100.00
45525;BME280;31437;58.350;13.828;2023-03-01T08:01:27;101410.00;;;7.88;100.00
45525;BME280;31437;58.350;13.828;2023-03-01T08:03:53;101378.75;;;7.84;100.00
45525;BME280;31437;58.350;13.828;2023-03-01T08:06:18;101374.97;;;7.58;100.00
45525;BME280;31437;58.350;13.828;2023-03-01T08:08:44;101363.59;;;7.22;100.00
45525;BME280;31437;58.350;13.828;2023-03-01T08:11:12;101373.97;;;7.26;100.00
45525;BME280;31437;58.350;13.828;2023-03-01T08:13:38;101365.09;;;7.34;100.00
45525;BME280;31437;58.350;13.828;2023-03-01T08:16:05;101352.00;;;7.35;100.00
45525;BME280;31437;58.350;13.828;2023-03-01T08:18:30;101348.03;;;7.17;100.00
45525;BME280;31437;58.350;13.828;2023-03-01T08:21:00;101323.69;;;7.18;100.00
45525;BME280;31437;58.350;13.828;2023-03-01T08:23:26;101326.78;;;7.34;100.00
45525;BME280;31437;58.350;13.828;2023-03-01T08:25:51;101314.94;;;7.19;100.00
45525;BME280;31437;58.350;13.828;2023-03-01T08:28:18;101328.78;;;7.62;100.00
45525;BME280;31437;58.350;13.828;2023-03-01T08:30:43;101289.81;;;7.88;100.00
45525;BME280;31437;58.350;13.828;2023-03-01T08:33:08;101288.00;;;7.90;100.00
45525;BME280;31437;58.350;13.828;2023-03-01T08:35:33;101277.72;;;7.84;100.00
45525;BME280;31437;58.350;13.828;2023-03-01T08:37:59;101265.72;;;8.10;100.00
45525;BME280;31437;58.350;13.828;2023-03-01T08:40:24;101259.94;;;7.99;100.00
45525;BME280;31437;58.350;13.828;2023-03-01T08:42:49;101266.59;;;8.09;100.00
45525;BME280;31437;58.350;13.828;2023-03-01T08:45:15;101255.63;;;7.96;100.00
45525;BME280;31437;58.350;13.828;2023-03-01T08:47:43;101258.81;;;8.07;100.00
45525;BME280;31437;58.350;13.828;2023-03-01T08:50:08;101266.47;;;8.15;100.00
45525;BME280;31437;58.350;13.828;2023-03-01T08:52:34;101263.22;;;8.05;100.00
45525;BME280;31437;58.350;13.828;2023-03-01T08:54:59;101239.34;;;7.86;100.00
45525;BME280;31437;58.350;13.828;2023-03-01T08:57:26;101257.50;;;7.91;100.00
45525;BME280;31437;58.350;13.828;2023-03-01T08:59:51;101259.81;;;7.69;100.00
45525;BME280;31437;58.350;13.828;2023-03-01T09:02:17;101265.63;;;7.80;100.00
45525;BME280;31437;58.350;13.828;2023-03-01T09:04:43;101263.28;;;7.69;100.00
45525;BME280;31437;58.350;13.828;2023-03-01T09:07:08;101254.94;;;7.55;100.00
45525;BME280;31437;58.350;13.828;2023-03-01T09:09:33;101268.19;;;7.47;100.00
45525;BME280;31437;58.350;13.828;2023-03-01T09:12:01;101265.81;;;7.38;100.00
45525;BME280;31437;58.350;13.828;2023-03-01T09:14:26;101270.34;;;7.30;100.00
45525;BME280;31437;58.350;13.828;2023-03-01T09:16:51;101296.16;;;7.42;100.00
45525;BME280;31437;58.350;13.828;2023-03-01T09:19:17;101277.31;;;7.30;100.00
45525;BME280;31437;58.350;13.828;2023-03-01T09:21:42;101274.44;;;7.03;100.00
45525;BME280;31437;58.350;13.828;2023-03-01T09:24:17;101291.63;;;6.71;100.00
45525;BME280;31437;58.350;13.828;2023-03-01T09:26:43;101297.09;;;6.59;100.00
45525;BME280;31437;58.350;13.828;2023-03-01T09:29:11;101304.09;;;6.57;100.00
45525;BME280;31437;58.350;13.828;2023-03-01T09:31:36;101312.09;;;6.46;100.00
45525;BME280;31437;58.350;13.828;2023-03-01T09:34:02;101319.53;;;6.21;100.00
45525;BME280;31437;58.350;13.828;2023-03-01T09:36:27;101347.53;;;6.08;100.00
45525;BME280;31437;58.350;13.828;2023-03-01T09:38:53;101343.28;;;6.04;100.00
45525;BME280;31437;58.350;13.828;2023-03-01T09:41:42;101342.63;;;5.90;100.00
45525;BME280;31437;58.350;13.828;2023-03-01T09:44:11;101360.00;;;5.88;100.00
45525;BME280;31437;58.350;13.828;2023-03-01T09:46:41;101356.63;;;5.81;100.00
45525;BME280;31437;58.350;13.828;2023-03-01T09:49:12;101362.59;;;5.88;100.00
45525;BME280;31437;58.350;13.828;2023-03-01T09:51:39;101368.66;;;5.91;100.00
45525;BME280;31437;58.350;13.828;2023-03-01T09:54:05;101353.97;;;5.84;100.00
45525;BME280;31437;58.350;13.828;2023-03-01T09:56:41;101347.06;;;5.83;100.00
45525;BME280;31437;58.350;13.828;2023-03-01T10:07:32;101367.94;;;5.80;100.00
45525;BME280;31437;58.350;13.828;2023-03-01T10:09:35;101349.78;;;5.76;100.00
45525;BME280;31437;58.350;13.828;2023-03-01T10:12:01;101341.16;;;5.74;100.00
45525;BME280;31437;58.350;13.828;2023-03-01T10:17:01;101356.72;;;5.77;100.00
45525;BME280;31437;58.350;13.828;2023-03-01T10:19:32;101356.72;;;5.77;100.00
45525;BME280;31437;58.350;13.828;2023-03-01T10:22:32;101358.53;;;5.72;100.00
45525;BME280;31437;58.350;13.828;2023-03-01T10:24:50;101351.72;;;5.61;100.00
45525;BME280;31437;58.350;13.828;2023-03-01T10:32:17;101382.72;;;5.80;100.00
45525;BME280;31437;58.350;13.828;2023-03-01T10:34:42;101378.41;;;5.77;100.00
45525;BME280;31437;58.350;13.828;2023-03-01T10:39:43;101373.13;;;5.82;100.00
45525;BME280;31437;58.350;13.828;2023-03-01T10:42:29;101373.09;;;5.83;100.00
45525;BME280;31437;58.350;13.828;2023-03-01T10:44:55;101367.00;;;5.84;100.00
45525;BME280;31437;58.350;13.828;2023-03-01T10:47:22;101371.25;;;5.90;100.00
45525;BME280;31437;58.350;13.828;2023-03-01T10:49:56;101358.25;;;5.90;100.00
45525;BME280;31437;58.350;13.828;2023-03-01T10:52:23;101321.94;;;5.81;100.00
45525;BME280;31437;58.350;13.828;2023-03-01T10:54:56;101319.53;;;5.67;100.00
45525;BME280;31437;58.350;13.828;2023-03-01T10:57:32;101330.81;;;5.67;100.00
45525;BME280;31437;58.350;13.828;2023-03-01T11:00:18;101325.75;;;5.60;100.00
45525;BME280;31437;58.350;13.828;2023-03-01T11:02:47;101357.69;;;5.69;100.00
45525;BME280;31437;58.350;13.828;2023-03-01T11:07:57;101342.97;;;5.68;100.00
45525;BME280;31437;58.350;13.828;2023-03-01T11:10:25;101368.81;;;5.81;100.00
45525;BME280;31437;58.350;13.828;2023-03-01T11:12:51;101356.63;;;5.83;100.00
45525;BME280;31437;58.350;13.828;2023-03-01T11:15:27;101349.63;;;5.85;100.00
45525;BME280;31437;58.350;13.828;2023-03-01T11:17:53;101333.28;;;5.77;100.00
45525;BME280;31437;58.350;13.828;2023-03-01T11:22:49;101340.03;;;5.88;100.00
45525;BME280;31437;58.350;13.828;2023-03-01T11:25:17;101342.75;;;5.81;100.00
45525;BME280;31437;58.350;13.828;2023-03-01T11:27:44;101340.06;;;5.87;100.00
45525;BME280;31437;58.350;13.828;2023-03-01T11:32:38;101339.94;;;5.98;100.00
45525;BME280;31437;58.350;13.828;2023-03-01T11:35:16;101355.56;;;5.98;100.00
45525;BME280;31437;58.350;13.828;2023-03-01T11:40:32;101340.63;;;6.07;100.00
45525;BME280;31437;58.350;13.828;2023-03-01T11:43:09;101337.06;;;6.11;100.00
45525;BME280;31437;58.350;13.828;2023-03-01T11:45:43;101334.50;;;6.10;100.00
45525;BME280;31437;58.350;13.828;2023-03-01T11:50:47;101304.94;;;6.11;100.00
45525;BME280;31437;58.350;13.828;2023-03-01T12:16:25;101332.13;;;5.96;100.00
45525;BME280;31437;58.350;13.828;2023-03-01T12:18:57;101333.88;;;5.94;100.00
45525;BME280;31437;58.350;13.828;2023-03-01T12:26:57;101346.91;;;5.96;100.00
45525;BME280;31437;58.350;13.828;2023-03-01T12:34:48;101297.34;;;5.99;100.00
45525;BME280;31437;58.350;13.828;2023-03-01T12:50:39;101320.84;;;5.97;100.00
45525;BME280;31437;58.350;13.828;2023-03-01T12:53:07;101324.25;;;5.99;100.00
45525;BME280;31437;58.350;13.828;2023-03-01T12:55:38;101307.78;;;5.99;100.00
45525;BME280;31437;58.350;13.828;2023-03-01T13:08:35;101300.88;;;5.96;100.00
45525;BME280;31437;58.350;13.828;2023-03-01T13:11:05;101300.00;;;5.97;100.00
45525;BME280;31437;58.350;13.828;2023-03-01T13:13:31;101281.72;;;5.99;100.00
45525;BME280;31437;58.350;13.828;2023-03-01T13:15:57;101271.31;;;5.99;100.00
45525;BME280;31437;58.350;13.828;2023-03-01T13:20:50;101261.03;;;5.89;100.00
45525;BME280;31437;58.350;13.828;2023-03-01T13:31:02;101231.53;;;5.89;100.00
45525;BME280;31437;58.350;13.828;2023-03-01T13:35:54;101232.44;;;5.85;100.00
45525;BME280;31437;58.350;13.828;2023-03-01T13:41:04;101235.97;;;5.82;100.00
45525;BME280;31437;58.350;13.828;2023-03-01T13:43:34;101220.50;;;5.73;100.00
45525;BME280;31437;58.350;13.828;2023-03-01T13:46:01;101225.75;;;5.72;100.00
45525;BME280;31437;58.350;13.828;2023-03-01T13:48:28;101237.91;;;5.71;100.00
45525;BME280;31437;58.350;13.828;2023-03-01T13:50:56;101242.28;;;5.69;100.00
45525;BME280;31437;58.350;13.828;2023-03-01T13:53:25;101244.94;;;5.66;100.00
45525;BME280;31437;58.350;13.828;2023-03-01T13:55:52;101242.34;;;5.64;100.00
45525;BME280;31437;58.350;13.828;2023-03-01T13:58:24;101247.66;;;5.58;100.00
45525;BME280;31437;58.350;13.828;2023-03-01T14:03:21;101245.09;;;5.57;100.00
45525;BME280;31437;58.350;13.828;2023-03-01T14:06:03;101227.78;;;5.53;100.00
45525;BME280;31437;58.350;13.828;2023-03-01T14:08:31;101248.63;;;5.53;100.00
45525;BME280;31437;58.350;13.828;2023-03-01T14:11:01;101258.22;;;5.49;100.00
45525;BME280;31437;58.350;13.828;2023-03-01T14:18:25;101265.34;;;5.38;100.00
45525;BME280;31437;58.350;13.828;2023-03-01T14:20:53;101283.59;;;5.36;100.00
45525;BME280;31437;58.350;13.828;2023-03-01T14:23:20;101281.00;;;5.35;100.00
45525;BME280;31437;58.350;13.828;2023-03-01T14:25:55;101274.09;;;5.32;100.00
45525;BME280;31437;58.350;13.828;2023-03-01T14:30:51;101252.66;;;5.18;100.00
45525;BME280;31437;58.350;13.828;2023-03-01T14:33:19;101248.41;;;5.12;100.00
45525;BME280;31437;58.350;13.828;2023-03-01T14:35:51;101249.25;;;5.11;100.00